createdAt,value
2019-05-13T00:01:47.081Z,12.70
2019-05-13T00:04:17.621Z,12.60
2019-05-13T00:06:53.903Z,12.60
2019-05-13T00:09:20.363Z,12.60
2019-05-13T00:11:50.849Z,12.70
2019-05-13T00:14:21.319Z,12.60
2019-05-13T00:16:53.659Z,12.60
2019-05-13T00:19:24.295Z,12.60
2019-05-13T00:21:54.790Z,12.60
2019-05-13T00:24:25.260Z,12.60
2019-05-13T00:26:55.749Z,12.60
2019-05-13T00:29:26.217Z,12.60
2019-05-13T00:31:56.712Z,12.60
2019-05-13T00:34:27.192Z,12.60
2019-05-13T00:37:07.620Z,12.50
2019-05-13T00:39:29.855Z,12.60
2019-05-13T00:42:00.350Z,12.50
2019-05-13T00:44:30.851Z,12.50
2019-05-13T00:47:01.333Z,12.50
2019-05-13T00:49:31.826Z,12.50
2019-05-13T00:52:03.859Z,12.50
2019-05-13T00:54:34.622Z,12.50
2019-05-13T00:57:05.557Z,12.40
2019-05-13T00:59:36.063Z,12.40
2019-05-13T01:02:06.614Z,12.40
2019-05-13T01:04:37.107Z,12.30
2019-05-13T01:07:15.406Z,12.30
2019-05-13T01:09:39.771Z,12.30
2019-05-13T01:12:10.298Z,12.30
2019-05-13T01:14:43.087Z,12.20
2019-05-13T01:17:14.171Z,12.20
2019-05-13T01:19:44.797Z,12.20
2019-05-13T01:22:15.334Z,12.20
2019-05-13T01:24:45.837Z,12.20
2019-05-13T01:27:16.298Z,12.10
2019-05-13T01:29:46.804Z,12.10
2019-05-13T01:32:17.296Z,12.10
2019-05-13T01:34:47.774Z,12.10
2019-05-13T01:37:18.264Z,12.10
2019-05-13T01:39:48.801Z,12.00
2019-05-13T01:42:19.288Z,12.00
2019-05-13T01:44:49.760Z,12.00
2019-05-13T01:47:20.249Z,12.10
2019-05-13T01:49:50.716Z,12.10
2019-05-13T01:52:23.637Z,12.00
2019-05-13T01:54:54.430Z,11.90
2019-05-13T01:57:24.946Z,11.90
2019-05-13T01:59:55.427Z,12.00
2019-05-13T02:02:25.896Z,11.90
2019-05-13T02:04:56.362Z,11.80
2019-05-13T02:07:26.858Z,11.80
2019-05-13T02:09:58.227Z,11.80
2019-05-13T02:12:29.172Z,11.80
2019-05-13T02:14:59.674Z,11.80
2019-05-13T02:17:30.154Z,11.80
2019-05-13T02:20:00.641Z,11.80
2019-05-13T02:22:33.513Z,11.80
2019-05-13T02:25:04.492Z,11.80
2019-05-13T02:27:35.105Z,11.70
2019-05-13T02:30:06.832Z,11.60
2019-05-13T02:32:37.367Z,11.50
2019-05-13T02:35:07.943Z,11.60
2019-05-13T02:37:38.453Z,11.50
2019-05-13T02:40:09.166Z,11.50
2019-05-13T02:42:43.246Z,11.50
2019-05-13T02:45:13.899Z,11.60
2019-05-13T02:47:44.584Z,11.60
2019-05-13T02:50:15.557Z,11.70
2019-05-13T02:52:46.098Z,11.60
2019-05-13T02:55:16.717Z,11.70
2019-05-13T02:57:47.225Z,11.70
2019-05-13T03:00:18.522Z,11.70
2019-05-13T03:02:52.258Z,11.70
2019-05-13T03:05:22.137Z,11.70
2019-05-13T03:07:53.217Z,11.60
2019-05-13T03:10:23.895Z,11.60
2019-05-13T03:12:54.352Z,11.70
2019-05-13T03:15:26.504Z,11.70
2019-05-13T03:18:05.931Z,11.70
2019-05-13T03:20:36.608Z,11.60
2019-05-13T03:23:07.144Z,11.70
2019-05-13T03:25:37.645Z,11.60
2019-05-13T03:28:08.141Z,11.50
2019-05-13T03:30:38.697Z,11.40
2019-05-13T03:33:11.543Z,11.40
2019-05-13T03:35:45.436Z,11.40
2019-05-13T03:38:13.738Z,11.40
2019-05-13T03:40:44.244Z,11.40
2019-05-13T03:43:17.230Z,11.40
2019-05-13T03:45:52.608Z,11.40
2019-05-13T03:48:23.840Z,11.50
2019-05-13T03:50:55.267Z,11.50
2019-05-13T03:53:25.728Z,11.50
2019-05-13T03:55:56.468Z,11.50
2019-05-13T03:58:32.165Z,11.50
2019-05-13T04:01:02.768Z,11.50
2019-05-13T04:03:33.682Z,11.40
2019-05-13T04:06:04.371Z,11.40
2019-05-13T04:08:34.933Z,11.50
2019-05-13T04:11:05.511Z,11.50
2019-05-13T04:13:36.090Z,11.60
2019-05-13T04:16:06.705Z,11.60
2019-05-13T04:18:37.351Z,11.60
2019-05-13T04:21:07.811Z,11.70
2019-05-13T04:23:38.395Z,11.70
2019-05-13T04:26:08.889Z,11.70
2019-05-13T04:28:43.135Z,11.70
2019-05-13T04:31:14.116Z,11.70
2019-05-13T04:33:43.855Z,11.70
2019-05-13T04:36:14.482Z,11.70
2019-05-13T04:38:45.477Z,11.80
2019-05-13T04:41:16.117Z,11.90
2019-05-13T04:43:46.653Z,12.00
2019-05-13T04:46:17.147Z,12.10
2019-05-13T04:48:47.775Z,12.00
2019-05-13T04:51:18.388Z,12.10
2019-05-13T04:53:53.694Z,12.20
2019-05-13T04:56:22.364Z,12.20
2019-05-13T04:58:53.196Z,12.30
2019-05-13T05:02:03.902Z,12.30
2019-05-13T05:04:52.473Z,12.30
2019-05-13T05:07:46.935Z,12.40
2019-05-13T05:10:55.521Z,12.40
2019-05-13T05:14:02.490Z,12.40
2019-05-13T05:16:44.729Z,12.40
2019-05-13T05:19:54.560Z,12.40
2019-05-13T05:23:03.342Z,12.50
2019-05-13T05:26:01.139Z,12.40
2019-05-13T05:28:41.920Z,12.40
2019-05-13T05:31:41.427Z,12.40
2019-05-13T05:34:29.266Z,12.40
2019-05-13T05:37:37.564Z,12.30
2019-05-13T05:40:08.443Z,12.40
2019-05-13T05:42:43.181Z,12.50
2019-05-13T05:45:16.294Z,12.60
2019-05-13T05:47:47.433Z,12.80
2019-05-13T05:50:18.093Z,12.80
2019-05-13T05:52:51.374Z,12.90
2019-05-13T05:55:24.449Z,12.90
2019-05-13T05:57:56.860Z,12.90
2019-05-13T06:00:27.403Z,13.00
2019-05-13T06:02:58.732Z,13.10
2019-05-13T06:05:31.776Z,13.10
2019-05-13T06:08:02.033Z,13.00
2019-05-13T06:10:46.235Z,13.10
2019-05-13T06:13:05.612Z,13.20
2019-05-13T06:15:36.188Z,13.20
2019-05-13T06:18:06.726Z,13.30
2019-05-13T06:20:37.312Z,13.30
2019-05-13T06:23:07.785Z,13.30
2019-05-13T06:25:38.424Z,13.30
2019-05-13T06:28:08.947Z,13.40
2019-05-13T06:30:41.406Z,13.40
2019-05-13T06:33:12.228Z,13.50
2019-05-13T06:35:45.006Z,13.60
2019-05-13T06:38:15.565Z,13.70
2019-05-13T06:40:59.457Z,13.70
2019-05-13T06:43:18.222Z,13.60
2019-05-13T06:45:48.680Z,13.60
2019-05-13T06:48:23.078Z,13.70
2019-05-13T06:50:53.331Z,13.70
2019-05-13T06:53:23.821Z,13.70
2019-05-13T06:55:54.309Z,13.90
2019-05-13T06:58:24.865Z,13.90
2019-05-13T07:00:57.962Z,13.90
2019-05-13T07:03:27.561Z,14.00
2019-05-13T07:05:58.121Z,14.00
2019-05-13T07:08:31.453Z,14.00
2019-05-13T07:11:17.254Z,14.00
2019-05-13T07:13:34.232Z,14.10
2019-05-13T07:16:04.785Z,14.10
2019-05-13T07:18:35.338Z,14.20
2019-05-13T07:21:05.878Z,14.20
2019-05-13T07:23:36.400Z,14.30
2019-05-13T07:26:06.863Z,14.30
2019-05-13T07:28:37.368Z,14.40
2019-05-13T07:31:07.829Z,15.20
2019-05-13T07:33:38.484Z,14.30
2019-05-13T07:36:09.092Z,14.40
2019-05-13T07:38:41.559Z,14.70
2019-05-13T07:41:12.832Z,14.60
2019-05-13T07:43:43.317Z,14.70
2019-05-13T07:46:13.787Z,14.70
2019-05-13T07:48:45.305Z,14.60
2019-05-13T07:51:15.790Z,14.70
2019-05-13T07:53:46.839Z,14.70
2019-05-13T07:56:17.317Z,14.90
2019-05-13T07:58:47.804Z,14.90
2019-05-13T08:01:18.340Z,15.00
2019-05-13T08:03:51.428Z,15.00
2019-05-13T08:06:22.034Z,14.90
2019-05-13T08:08:52.772Z,14.70
2019-05-13T08:11:24.156Z,14.80
2019-05-13T08:13:54.796Z,14.80
2019-05-13T08:16:25.321Z,14.60
2019-05-13T08:18:55.810Z,14.60
2019-05-13T08:21:26.299Z,14.70
2019-05-13T08:23:56.784Z,14.80
2019-05-13T08:26:27.250Z,14.70
2019-05-13T08:29:01.949Z,14.50
2019-05-13T08:31:32.154Z,14.40
2019-05-13T08:34:02.597Z,14.30
2019-05-13T08:36:33.261Z,14.30
2019-05-13T08:39:05.621Z,14.20
2019-05-13T08:41:36.124Z,14.00
2019-05-13T08:44:06.750Z,14.00
2019-05-13T08:46:37.318Z,14.10
2019-05-13T08:49:07.800Z,14.10
2019-05-13T08:51:38.566Z,14.00
2019-05-13T08:54:11.472Z,14.00
2019-05-13T08:56:42.083Z,14.00
2019-05-13T08:59:12.543Z,14.10
2019-05-13T09:01:43.040Z,14.40
2019-05-13T09:04:13.510Z,14.30
2019-05-13T09:06:44.472Z,14.40
2019-05-13T09:09:15.325Z,14.20
2019-05-13T09:11:45.829Z,14.30
2019-05-13T09:14:16.391Z,14.30
2019-05-13T09:16:47.030Z,14.20
2019-05-13T09:19:17.519Z,14.10
2019-05-13T09:21:48.111Z,14.10
2019-05-13T09:24:27.105Z,14.10
2019-05-13T09:26:52.733Z,14.00
2019-05-13T09:29:23.408Z,14.00
2019-05-13T09:31:53.947Z,14.20
2019-05-13T09:34:24.696Z,14.20
2019-05-13T09:36:55.156Z,13.90
2019-05-13T09:39:25.652Z,13.70
2019-05-13T09:41:56.154Z,13.60
2019-05-13T09:44:26.748Z,13.50
2019-05-13T09:46:57.236Z,13.40
2019-05-13T09:49:27.807Z,13.20
2019-05-13T09:52:01.698Z,13.00
2019-05-13T09:54:33.092Z,12.80
2019-05-13T09:57:03.704Z,12.70
2019-05-13T09:59:34.205Z,12.50
2019-05-13T10:02:05.846Z,12.50
2019-05-13T10:04:36.329Z,12.50
2019-05-13T10:07:06.964Z,12.40
2019-05-13T10:09:37.520Z,12.30
2019-05-13T10:12:08.087Z,12.30
2019-05-13T10:14:38.544Z,12.30
2019-05-13T10:17:12.710Z,12.30
2019-05-13T10:19:42.228Z,12.40
2019-05-13T10:22:12.826Z,12.40
2019-05-13T10:24:43.749Z,12.30
2019-05-13T10:27:18.822Z,12.20
2019-05-13T10:29:51.787Z,12.10
2019-05-13T10:32:22.214Z,12.10
2019-05-13T10:34:54.503Z,12.20
2019-05-13T10:37:25.030Z,12.10
2019-05-13T10:39:57.471Z,12.10
2019-05-13T10:42:29.489Z,12.00
2019-05-13T10:45:02.449Z,12.00
2019-05-13T10:47:32.167Z,12.00
2019-05-13T10:50:03.128Z,12.00
2019-05-13T10:52:35.882Z,12.00
2019-05-13T10:55:08.003Z,12.20
2019-05-13T10:57:38.551Z,12.30
2019-05-13T11:00:12.168Z,12.50
2019-05-13T11:02:42.944Z,12.50
2019-05-13T11:05:13.695Z,12.70
2019-05-13T11:07:46.946Z,13.90
2019-05-13T11:10:22.393Z,13.30
2019-05-13T11:12:54.482Z,13.40
2019-05-13T11:15:24.979Z,13.60
2019-05-13T11:17:55.514Z,13.90
2019-05-13T11:20:26.076Z,14.30
2019-05-13T11:22:56.854Z,14.30
2019-05-13T11:25:27.345Z,14.50
2019-05-13T11:27:58.558Z,14.70
2019-05-13T11:30:31.992Z,15.10
2019-05-13T11:33:02.638Z,15.40
2019-05-13T11:35:33.698Z,15.70
2019-05-13T11:38:04.296Z,15.90
2019-05-13T11:40:34.964Z,16.10
2019-05-13T11:43:05.503Z,16.00
2019-05-13T11:45:36.057Z,15.60
2019-05-13T11:48:06.658Z,15.30
2019-05-13T11:50:42.162Z,14.70
2019-05-13T11:53:31.548Z,14.40
2019-05-13T11:55:44.520Z,14.40
2019-05-13T11:58:15.043Z,14.30
2019-05-13T12:00:56.119Z,14.10
2019-05-13T12:03:26.936Z,14.10
2019-05-13T12:05:57.875Z,14.20
2019-05-13T12:08:28.493Z,14.30
2019-05-13T12:10:58.999Z,14.10
2019-05-13T12:13:29.456Z,14.20
2019-05-13T12:16:03.709Z,14.60
2019-05-13T12:18:34.636Z,14.40
2019-05-13T12:21:05.157Z,14.20
2019-05-13T12:23:35.620Z,14.30
2019-05-13T12:26:06.106Z,14.40
2019-05-13T12:28:36.622Z,14.60
2019-05-13T12:31:07.080Z,14.60
2019-05-13T12:33:37.588Z,14.90
2019-05-13T12:36:14.844Z,15.80
2019-05-13T12:38:44.024Z,16.30
2019-05-13T12:41:13.042Z,17.10
2019-05-13T12:43:43.644Z,17.10
2019-05-13T12:46:14.182Z,17.00
2019-05-13T12:48:44.733Z,17.20
2019-05-13T12:51:15.264Z,18.10
2019-05-13T12:53:46.338Z,19.10
2019-05-13T12:56:16.799Z,18.70
2019-05-13T12:58:47.306Z,18.40
2019-05-13T13:01:17.755Z,18.40
2019-05-13T13:03:48.241Z,17.30
2019-05-13T13:06:35.259Z,16.60
2019-05-13T13:08:51.070Z,16.20
2019-05-13T13:11:22.838Z,16.00
2019-05-13T13:13:59.350Z,15.60
2019-05-13T13:16:33.996Z,15.40
2019-05-13T13:18:58.126Z,14.90
2019-05-13T13:21:33.639Z,14.80
2019-05-13T13:24:04.410Z,14.60
2019-05-13T13:26:33.752Z,14.40
2019-05-13T13:29:04.577Z,13.90
2019-05-13T13:31:35.196Z,13.70
2019-05-13T13:34:11.991Z,13.40
2019-05-13T13:36:37.873Z,13.30
2019-05-13T13:39:13.721Z,13.00
2019-05-13T13:41:43.810Z,12.70
2019-05-13T13:44:15.673Z,12.50
2019-05-13T13:46:49.404Z,12.40
2019-05-13T13:49:18.338Z,12.30
2019-05-13T13:51:48.813Z,12.10
2019-05-13T13:54:22.169Z,12.20
2019-05-13T13:56:56.022Z,12.30
2019-05-13T13:59:25.018Z,12.30
2019-05-13T14:01:55.863Z,12.50
2019-05-13T14:04:26.347Z,12.50
2019-05-13T14:09:29.233Z,12.50
2019-05-13T14:12:01.862Z,12.70
2019-05-13T14:14:32.061Z,12.80
2019-05-13T14:17:02.583Z,12.80
2019-05-13T14:19:33.137Z,13.10
2019-05-13T14:22:03.605Z,13.20
2019-05-13T14:24:34.117Z,13.20
2019-05-13T14:27:04.715Z,13.00
2019-05-13T14:29:41.100Z,13.00
2019-05-13T14:32:07.499Z,13.10
2019-05-13T14:34:38.056Z,13.10
2019-05-13T14:37:08.558Z,13.20
2019-05-13T14:39:39.030Z,13.10
2019-05-13T14:42:11.717Z,13.10
2019-05-13T14:44:41.762Z,13.10
2019-05-13T14:47:12.664Z,13.10
2019-05-13T14:49:44.749Z,13.10
2019-05-13T14:52:15.251Z,13.10
2019-05-13T14:54:45.709Z,13.00
2019-05-13T14:57:16.216Z,13.00
2019-05-13T14:59:46.663Z,12.90
2019-05-13T15:02:17.165Z,12.90
2019-05-13T15:04:47.649Z,13.00
2019-05-13T15:07:18.284Z,13.10
2019-05-13T15:09:51.330Z,13.10
2019-05-13T15:12:21.629Z,13.10
2019-05-13T15:14:52.551Z,12.90
2019-05-13T15:17:23.140Z,12.80
2019-05-13T15:19:53.890Z,12.80
2019-05-13T15:22:24.384Z,12.80
2019-05-13T15:24:54.847Z,12.90
2019-05-13T15:27:25.336Z,12.90
2019-05-13T15:29:55.801Z,12.80
2019-05-13T15:32:26.567Z,12.80
2019-05-13T15:34:57.213Z,12.80
2019-05-13T15:37:27.707Z,12.90
2019-05-13T15:39:58.175Z,12.90
2019-05-13T15:42:28.698Z,13.00
2019-05-13T15:45:01.608Z,12.90
2019-05-13T15:47:31.451Z,12.90
2019-05-13T15:50:02.505Z,12.90
2019-05-13T15:52:33.566Z,12.90
2019-05-13T15:55:05.413Z,12.90
2019-05-13T15:57:35.898Z,12.90
2019-05-13T16:00:08.379Z,13.00
2019-05-13T16:02:38.842Z,13.00
2019-05-13T16:05:11.763Z,13.10
2019-05-13T16:07:42.042Z,13.20
2019-05-13T16:10:12.943Z,13.10
2019-05-13T16:12:43.419Z,13.30
2019-05-13T16:15:15.785Z,13.40
2019-05-13T16:17:46.214Z,13.50
2019-05-13T16:20:16.827Z,13.60
2019-05-13T16:22:47.316Z,13.50
2019-05-13T16:25:18.056Z,13.20
2019-05-13T16:27:48.545Z,13.10
2019-05-13T16:30:19.224Z,13.10
2019-05-13T16:32:52.161Z,13.10
2019-05-13T16:35:21.897Z,13.10
2019-05-13T16:37:56.117Z,12.90
2019-05-13T16:40:26.607Z,12.70
2019-05-13T16:42:57.063Z,12.60
2019-05-13T16:45:27.546Z,12.60
2019-05-13T16:48:03.046Z,12.60
2019-05-13T16:50:31.275Z,12.60
2019-05-13T16:53:02.054Z,12.60
2019-05-13T16:55:32.829Z,12.60
2019-05-13T16:58:03.370Z,12.60
2019-05-13T17:00:33.952Z,12.60
2019-05-13T17:03:04.481Z,12.40
2019-05-13T17:05:35.010Z,12.40
2019-05-13T17:08:05.564Z,12.30
2019-05-13T17:10:36.046Z,12.20
2019-05-13T17:13:06.531Z,12.20
2019-05-13T17:15:37.019Z,12.10
2019-05-13T17:18:11.884Z,11.90
2019-05-13T17:20:41.411Z,11.80
2019-05-13T17:23:12.589Z,11.80
2019-05-13T17:25:43.175Z,11.70
2019-05-13T17:28:13.660Z,11.50
2019-05-13T17:30:44.588Z,11.40
2019-05-13T17:33:15.090Z,11.40
2019-05-13T17:35:45.658Z,11.30
2019-05-13T17:38:16.164Z,11.20
2019-05-13T17:40:50.017Z,11.20
2019-05-13T17:43:21.306Z,11.20
2019-05-13T17:45:52.430Z,11.20
2019-05-13T17:48:29.095Z,11.10
2019-05-13T17:50:55.217Z,11.10
2019-05-13T17:53:25.744Z,11.10
2019-05-13T17:55:56.328Z,11.00
2019-05-13T17:58:26.794Z,11.00
2019-05-13T18:00:57.424Z,11.00
2019-05-13T18:03:27.973Z,10.90
2019-05-13T18:05:58.465Z,10.90
2019-05-13T18:08:28.930Z,11.00
2019-05-13T18:11:01.927Z,11.00
2019-05-13T18:13:32.195Z,11.00
2019-05-13T18:16:03.110Z,11.00
2019-05-13T18:18:43.042Z,11.00
2019-05-13T18:21:06.035Z,10.90
2019-05-13T18:23:36.546Z,10.70
2019-05-13T18:26:07.021Z,10.80
2019-05-13T18:28:37.521Z,10.80
2019-05-13T18:31:08.030Z,10.80
2019-05-13T18:33:38.528Z,10.80
2019-05-13T18:36:09.019Z,10.80
2019-05-13T18:38:41.712Z,10.80
2019-05-13T18:41:12.547Z,10.70
2019-05-13T18:43:43.006Z,10.70
2019-05-13T18:46:13.507Z,10.60
2019-05-13T18:48:58.103Z,10.50
2019-05-13T18:51:16.735Z,10.50
2019-05-13T18:53:47.224Z,10.40
2019-05-13T18:56:17.679Z,10.50
2019-05-13T18:58:48.173Z,10.40
2019-05-13T19:01:18.716Z,10.40
2019-05-13T19:03:49.211Z,10.40
2019-05-13T19:06:22.218Z,10.50
2019-05-13T19:08:52.824Z,10.50
2019-05-13T19:11:23.510Z,10.50
2019-05-13T19:13:54.003Z,10.50
2019-05-13T19:16:24.544Z,10.50
2019-05-13T19:18:55.032Z,10.50
2019-05-13T19:21:25.506Z,10.60
2019-05-13T19:23:56.004Z,10.50
2019-05-13T19:26:26.481Z,10.60
2019-05-13T19:28:56.980Z,10.60
2019-05-13T19:31:29.063Z,10.60
2019-05-13T19:34:01.468Z,10.60
2019-05-13T19:36:32.120Z,10.40
2019-05-13T19:39:02.610Z,10.40
2019-05-13T19:41:33.105Z,10.40
2019-05-13T19:44:03.583Z,10.40
2019-05-13T19:46:34.151Z,10.40
2019-05-13T19:49:04.640Z,10.30
2019-05-13T19:51:35.220Z,10.30
2019-05-13T19:54:05.721Z,10.30
2019-05-13T19:56:37.144Z,10.20
2019-05-13T19:59:07.610Z,10.10
2019-05-13T20:01:38.129Z,10.10
2019-05-13T20:04:08.661Z,10.10
2019-05-13T20:06:41.283Z,10.20
2019-05-13T20:09:11.366Z,10.20
2019-05-13T20:11:42.115Z,10.30
2019-05-13T20:14:12.738Z,10.20
2019-05-13T20:16:43.235Z,10.10
2019-05-13T20:19:13.832Z,10.10
2019-05-13T20:21:44.322Z,10.10
2019-05-13T20:24:14.851Z,10.10
2019-05-13T20:26:45.358Z,10.10
2019-05-13T20:29:15.942Z,10.10
2019-05-13T20:31:46.429Z,10.10
2019-05-13T20:34:16.922Z,10.10
2019-05-13T20:36:47.429Z,10.10
2019-05-13T20:39:17.936Z,10.00
2019-05-13T20:41:48.450Z,10.00
2019-05-13T20:44:18.912Z,10.00
2019-05-13T20:46:51.686Z,10.00
2019-05-13T20:49:21.923Z,10.00
2019-05-13T20:51:53.911Z,9.90
2019-05-13T20:54:24.398Z,9.90
2019-05-13T20:56:54.870Z,9.70
2019-05-13T20:59:25.336Z,9.70
2019-05-13T21:01:55.826Z,9.60
2019-05-13T21:04:26.318Z,9.60
2019-05-13T21:06:56.766Z,9.50
2019-05-13T21:09:27.242Z,9.40
2019-05-13T21:11:57.701Z,9.30
2019-05-13T21:14:28.252Z,9.30
2019-05-13T21:16:58.703Z,9.20
2019-05-13T21:19:38.710Z,9.20
2019-05-13T21:22:01.492Z,9.10
2019-05-13T21:24:32.059Z,9.00
2019-05-13T21:27:02.511Z,8.90
2019-05-13T21:29:32.988Z,8.80
2019-05-13T21:32:03.510Z,8.70
2019-05-13T21:34:34.001Z,8.60
2019-05-13T21:37:04.459Z,8.60
2019-05-13T21:39:34.933Z,8.60
2019-05-13T21:42:05.386Z,8.50
2019-05-13T21:44:35.862Z,8.50
2019-05-13T21:47:06.335Z,8.60
2019-05-13T21:49:38.481Z,8.60
2019-05-13T21:52:09.217Z,8.60
2019-05-13T21:54:42.011Z,8.50
2019-05-13T21:57:12.795Z,8.40
2019-05-13T21:59:45.105Z,8.40
2019-05-13T22:02:15.513Z,8.40
2019-05-13T22:04:46.041Z,8.40
2019-05-13T22:07:18.062Z,8.40
2019-05-13T22:09:48.605Z,8.30
2019-05-13T22:12:21.525Z,8.30
2019-05-13T22:14:51.724Z,8.20
2019-05-13T22:17:22.311Z,8.20
2019-05-13T22:19:52.805Z,8.00
2019-05-13T22:22:23.527Z,7.90
2019-05-13T22:24:54.077Z,7.90
2019-05-13T22:27:24.547Z,7.80
2019-05-13T22:29:55.019Z,7.80
2019-05-13T22:32:25.471Z,7.80
2019-05-13T22:34:55.948Z,7.90
2019-05-13T22:37:27.066Z,7.80
2019-05-13T22:39:57.559Z,7.80
2019-05-13T22:42:28.034Z,7.80
2019-05-13T22:44:58.512Z,7.80
2019-05-13T22:47:31.368Z,7.70
2019-05-13T22:50:02.043Z,7.70
2019-05-13T22:52:33.178Z,7.70
2019-05-13T22:55:04.969Z,7.70
2019-05-13T22:57:35.453Z,7.70
2019-05-13T23:00:09.034Z,7.50
2019-05-13T23:02:41.995Z,7.60
2019-05-13T23:05:11.729Z,7.60
2019-05-13T23:07:42.232Z,7.50
2019-05-13T23:10:13.010Z,7.40
2019-05-13T23:12:43.569Z,7.40
2019-05-13T23:15:14.165Z,7.40
2019-05-13T23:17:44.649Z,7.40
2019-05-13T23:20:15.211Z,7.30
2019-05-13T23:22:45.671Z,7.20
2019-05-13T23:25:16.211Z,7.10
2019-05-13T23:27:46.676Z,7.00
2019-05-13T23:30:17.298Z,7.00
2019-05-13T23:32:48.264Z,7.10
2019-05-13T23:35:18.741Z,7.00
2019-05-13T23:37:51.030Z,7.00
2019-05-13T23:40:21.771Z,6.90
2019-05-13T23:42:52.324Z,7.00
2019-05-13T23:45:24.245Z,7.10
2019-05-13T23:47:54.722Z,7.00
2019-05-13T23:50:25.212Z,7.00
2019-05-13T23:52:55.695Z,7.00
2019-05-13T23:55:26.242Z,6.90
2019-05-13T23:57:56.692Z,7.00
